Time;durP1;ratioP1;P1;durP2;ratioP2;P2;SDS_P1;SDS_P2;PMS_P1;PMS_P2;Temp;Humidity;BMP_temperature;BMP_pressure;BME280_temperature;BME280_humidity;BME280_pressure;Samples;Min_cycle;Max_cycle;Signal;HPM_P1;HPM_P2
2021/04/24 00:01:01;;;;;;;8.70;3.90;;;;;;;;;;5090727;28;20455;-53
2021/04/24 00:03:27;;;;;;;6.73;4.67;;;;;;;;;;5091051;28;20773;-55
2021/04/24 00:05:53;;;;;;;9.38;4.47;;;;;;;;;;5090593;28;20403;-54
2021/04/24 00:08:19;;;;;;;4.83;3.70;;;;;;;;;;5091382;28;20166;-51
2021/04/24 00:10:46;;;;;;;6.27;4.93;;;;;;;;;;5090719;28;20906;-51
2021/04/24 00:13:13;;;;;;;6.80;4.22;;;;;;;;;;5090833;28;20414;-51
2021/04/24 00:15:40;;;;;;;6.78;4.10;;;;;;;;;;5090355;28;20668;-51
2021/04/24 00:18:06;;;;;;;5.55;4.00;;;;;;;;;;5091036;28;20173;-52
2021/04/24 00:20:33;;;;;;;13.00;4.90;;;;;;;;;;5090719;28;20209;-52
2021/04/24 00:22:58;;;;;;;12.35;4.65;;;;;;;;;;5090762;28;20186;-52
2021/04/24 00:25:24;;;;;;;5.03;4.33;;;;;;;;;;5090346;28;20216;-52
2021/04/24 00:27:50;;;;;;;7.90;4.60;;;;;;;;;;5090832;28;20418;-52
2021/04/24 00:30:17;;;;;;;9.60;4.43;;;;;;;;;;5090573;28;20430;-52
2021/04/24 00:32:44;;;;;;;7.47;4.30;;;;;;;;;;5091085;28;20617;-51
2021/04/24 00:35:11;;;;;;;11.25;4.55;;;;;;;;;;5090550;28;20216;-54
2021/04/24 00:37:37;;;;;;;7.70;3.70;;;;;;;;;;5091151;28;20195;-51
2021/04/24 00:40:04;;;;;;;10.73;4.47;;;;;;;;;;5090701;28;20636;-51
2021/04/24 00:42:30;;;;;;;4.50;4.10;;;;;;;;;;5093622;28;20190;-54
2021/04/24 00:44:56;;;;;;;8.73;4.97;;;;;;;;;;5094660;28;20193;-51
2021/04/24 00:47:23;;;;;;;6.47;4.55;;;;;;;;;;5094650;28;20486;-51
2021/04/24 00:49:50;;;;;;;9.07;4.30;;;;;;;;;;5094578;28;20181;-51
2021/04/24 00:52:16;;;;;;;9.63;4.82;;;;;;;;;;5094559;28;20166;-52
2021/04/24 00:54:42;;;;;;;7.60;3.70;;;;;;;;;;5094540;28;20252;-51
2021/04/24 00:57:08;;;;;;;8.47;4.57;;;;;;;;;;5093951;28;20252;-52
2021/04/24 00:59:34;;;;;;;7.68;4.55;;;;;;;;;;5094251;28;20439;-51
2021/04/24 01:02:01;;;;;;;7.78;4.35;;;;;;;;;;5093727;28;20193;-54
2021/04/24 01:04:27;;;;;;;6.78;3.92;;;;;;;;;;5093932;28;20166;-52
2021/04/24 01:06:53;;;;;;;7.47;4.30;;;;;;;;;;5093467;28;20222;-52
2021/04/24 01:09:19;;;;;;;7.03;4.40;;;;;;;;;;5094094;28;20420;-52
2021/04/24 01:11:46;;;;;;;6.90;3.78;;;;;;;;;;5093912;28;20449;-53
2021/04/24 01:14:11;;;;;;;6.47;4.18;;;;;;;;;;5094192;28;20663;-54
2021/04/24 01:16:38;;;;;;;9.43;4.30;;;;;;;;;;5093705;28;20173;-52
2021/04/24 01:19:04;;;;;;;6.40;4.03;;;;;;;;;;5094038;28;20899;-53
2021/04/24 01:21:30;;;;;;;7.22;4.60;;;;;;;;;;5093735;28;20212;-55
2021/04/24 01:23:56;;;;;;;8.68;4.10;;;;;;;;;;5093915;28;20161;-54
2021/04/24 01:26:22;;;;;;;5.50;3.57;;;;;;;;;;5093935;28;20519;-51
2021/04/24 01:28:48;;;;;;;9.38;3.80;;;;;;;;;;5093841;28;20905;-54
2021/04/24 01:31:15;;;;;;;8.00;4.93;;;;;;;;;;5093777;28;20197;-54
2021/04/24 01:33:41;;;;;;;5.32;3.80;;;;;;;;;;5093798;28;20486;-51
2021/04/24 01:36:07;;;;;;;7.97;4.00;;;;;;;;;;5093417;28;20296;-51
2021/04/24 01:38:33;;;;;;;10.10;3.90;;;;;;;;;;5093715;28;20256;-52
2021/04/24 01:41:00;;;;;;;9.60;4.20;;;;;;;;;;5093329;28;21031;-52
2021/04/24 01:43:26;;;;;;;9.05;3.90;;;;;;;;;;5093425;28;20562;-51
2021/04/24 01:45:52;;;;;;;5.93;3.83;;;;;;;;;;5093207;28;20205;-52
2021/04/24 01:48:18;;;;;;;7.80;4.37;;;;;;;;;;5093381;28;20562;-53
2021/04/24 01:50:46;;;;;;;9.93;3.63;;;;;;;;;;5093398;28;20453;-53
2021/04/24 01:53:22;;;;;;;5.43;4.00;;;;;;;;;;5092809;28;20404;-51
2021/04/24 01:55:49;;;;;;;4.90;3.75;;;;;;;;;;5093359;28;20534;-52
2021/04/24 01:58:17;;;;;;;6.65;3.30;;;;;;;;;;5093063;28;20178;-53
2021/04/24 02:00:47;;;;;;;5.40;3.75;;;;;;;;;;5093160;28;20212;-52
2021/04/24 02:03:14;;;;;;;6.32;4.03;;;;;;;;;;5093211;28;20580;-52
2021/04/24 02:05:41;;;;;;;6.72;3.25;;;;;;;;;;5092900;28;20166;-53
2021/04/24 02:08:09;;;;;;;6.55;4.10;;;;;;;;;;5092869;28;20162;-54
2021/04/24 02:10:35;;;;;;;5.05;3.65;;;;;;;;;;5092997;28;20192;-51
2021/04/24 02:13:03;;;;;;;9.85;3.60;;;;;;;;;;5092955;28;20180;-51
2021/04/24 02:15:29;;;;;;;4.90;3.65;;;;;;;;;;5092926;28;20161;-52
2021/04/24 02:17:55;;;;;;;9.65;4.00;;;;;;;;;;5093382;28;20582;-51
2021/04/24 02:20:21;;;;;;;4.70;3.30;;;;;;;;;;5092743;28;20216;-52
2021/04/24 02:22:47;;;;;;;8.13;4.60;;;;;;;;;;5092582;28;20495;-51
2021/04/24 02:25:15;;;;;;;4.57;3.00;;;;;;;;;;5092534;28;20672;-51
2021/04/24 02:27:41;;;;;;;3.97;3.50;;;;;;;;;;5092672;28;20161;-52
2021/04/24 02:30:08;;;;;;;8.05;4.07;;;;;;;;;;5092852;28;20254;-52
2021/04/24 02:32:34;;;;;;;5.25;3.38;;;;;;;;;;5093267;28;20179;-51
2021/04/24 02:35:01;;;;;;;4.53;3.53;;;;;;;;;;5092744;28;20808;-57
2021/04/24 02:37:27;;;;;;;12.18;4.90;;;;;;;;;;5092810;28;20396;-51
2021/04/24 02:39:53;;;;;;;7.07;3.80;;;;;;;;;;5092990;28;20203;-51
2021/04/24 02:42:20;;;;;;;4.93;3.25;;;;;;;;;;5092911;28;20315;-53
2021/04/24 02:44:47;;;;;;;7.40;3.30;;;;;;;;;;5092443;28;20659;-51
2021/04/24 02:47:13;;;;;;;9.40;4.03;;;;;;;;;;5092185;28;20169;-54
2021/04/24 02:49:40;;;;;;;7.70;3.25;;;;;;;;;;5092085;28;20212;-55
2021/04/24 02:52:06;;;;;;;5.80;3.50;;;;;;;;;;5092245;28;20594;-54
2021/04/24 02:54:32;;;;;;;5.20;3.30;;;;;;;;;;5092139;28;20207;-54
2021/04/24 02:56:58;;;;;;;4.77;3.30;;;;;;;;;;5092041;28;20203;-53
2021/04/24 02:59:24;;;;;;;4.68;3.05;;;;;;;;;;5091886;28;20441;-52
2021/04/24 03:01:51;;;;;;;3.37;2.63;;;;;;;;;;5091962;28;20201;-53
2021/04/24 03:04:17;;;;;;;7.45;3.42;;;;;;;;;;5091018;28;20812;-52
2021/04/24 03:06:43;;;;;;;4.65;3.45;;;;;;;;;;5091920;28;20544;-51
2021/04/24 03:09:09;;;;;;;4.63;3.05;;;;;;;;;;5091903;28;20213;-54
2021/04/24 03:11:36;;;;;;;6.07;3.65;;;;;;;;;;5091916;28;20169;-51
2021/04/24 03:14:02;;;;;;;5.78;3.20;;;;;;;;;;5091727;28;20197;-52
2021/04/24 03:16:28;;;;;;;8.02;3.58;;;;;;;;;;5091523;28;20226;-54
2021/04/24 03:18:54;;;;;;;9.13;3.80;;;;;;;;;;5091476;28;20177;-51
2021/04/24 03:21:24;;;;;;;4.32;3.35;;;;;;;;;;5091615;28;20461;-51
2021/04/24 03:23:50;;;;;;;12.38;6.82;;;;;;;;;;5091594;28;20168;-51
2021/04/24 03:26:16;;;;;;;8.33;4.00;;;;;;;;;;5091594;28;20165;-51
2021/04/24 03:28:42;;;;;;;6.68;4.47;;;;;;;;;;5091576;28;20789;-51
2021/04/24 03:31:08;;;;;;;4.53;3.60;;;;;;;;;;5091553;28;20463;-51
2021/04/24 03:33:34;;;;;;;9.35;3.65;;;;;;;;;;5091393;28;20362;-51
2021/04/24 03:36:00;;;;;;;10.40;3.20;;;;;;;;;;5091275;28;20168;-51
2021/04/24 03:38:26;;;;;;;5.25;3.55;;;;;;;;;;5091576;28;20395;-52
2021/04/24 03:40:52;;;;;;;6.75;3.40;;;;;;;;;;5091140;28;20252;-52
2021/04/24 03:43:18;;;;;;;11.10;3.90;;;;;;;;;;5091362;28;20169;-53
2021/04/24 03:45:44;;;;;;;6.45;3.55;;;;;;;;;;5090860;28;20403;-51
2021/04/24 03:48:10;;;;;;;6.05;4.30;;;;;;;;;;5091195;28;20714;-52
2021/04/24 03:50:36;;;;;;;4.30;3.40;;;;;;;;;;5090968;28;20186;-51
2021/04/24 03:53:02;;;;;;;6.85;4.05;;;;;;;;;;5091182;28;20457;-52
2021/04/24 03:55:28;;;;;;;5.85;4.63;;;;;;;;;;5090801;28;20259;-52
2021/04/24 03:57:55;;;;;;;8.27;3.73;;;;;;;;;;5091165;28;20249;-52
2021/04/24 04:00:22;;;;;;;5.53;3.85;;;;;;;;;;5090722;28;20452;-53
2021/04/24 04:02:55;;;;;;;5.18;3.35;;;;;;;;;;5091069;28;20208;-51
2021/04/24 04:05:28;;;;;;;7.32;4.32;;;;;;;;;;5090976;28;20166;-56
2021/04/24 04:07:55;;;;;;;7.38;3.83;;;;;;;;;;5091095;28;20826;-54
2021/04/24 04:10:21;;;;;;;13.30;4.43;;;;;;;;;;5090775;28;20193;-53
2021/04/24 04:12:47;;;;;;;7.68;4.53;;;;;;;;;;5090989;28;20177;-54
2021/04/24 04:15:14;;;;;;;10.55;3.83;;;;;;;;;;5090277;28;20275;-54
2021/04/24 04:17:40;;;;;;;6.55;3.92;;;;;;;;;;5090952;28;20170;-54
2021/04/24 04:20:07;;;;;;;7.05;4.65;;;;;;;;;;5090858;28;20181;-54
2021/04/24 04:22:33;;;;;;;5.70;4.20;;;;;;;;;;5090844;28;20199;-53
2021/04/24 04:24:59;;;;;;;10.40;4.00;;;;;;;;;;5090695;28;20177;-54
2021/04/24 04:27:25;;;;;;;10.07;4.55;;;;;;;;;;5090913;28;20705;-53
2021/04/24 04:29:51;;;;;;;10.23;4.50;;;;;;;;;;5090734;28;20656;-54
2021/04/24 04:32:17;;;;;;;7.67;4.13;;;;;;;;;;5090715;28;20163;-54
2021/04/24 04:34:43;;;;;;;8.82;4.63;;;;;;;;;;5090662;28;20413;-55
2021/04/24 04:37:09;;;;;;;7.27;4.93;;;;;;;;;;5090401;28;20180;-55
2021/04/24 04:39:35;;;;;;;8.23;4.97;;;;;;;;;;5090705;28;20428;-54
2021/04/24 04:42:01;;;;;;;9.53;4.33;;;;;;;;;;5090547;28;20974;-55
2021/04/24 04:44:27;;;;;;;9.70;4.50;;;;;;;;;;5090700;28;20954;-55
2021/04/24 04:46:53;;;;;;;7.97;5.07;;;;;;;;;;5090375;28;20394;-55
2021/04/24 04:49:19;;;;;;;11.20;5.03;;;;;;;;;;5090530;28;20929;-54
2021/04/24 04:51:45;;;;;;;10.70;4.70;;;;;;;;;;5090555;28;20484;-54
2021/04/24 04:54:11;;;;;;;4.73;4.13;;;;;;;;;;5090522;28;20611;-54
2021/04/24 04:56:37;;;;;;;5.27;4.07;;;;;;;;;;5090007;28;20417;-54
2021/04/24 04:59:03;;;;;;;7.80;4.53;;;;;;;;;;5072206;28;20426;-54
2021/04/24 05:01:29;;;;;;;10.02;4.25;;;;;;;;;;5090256;28;20203;-54
2021/04/24 05:03:55;;;;;;;5.40;4.53;;;;;;;;;;5090392;28;20250;-55
2021/04/24 05:06:21;;;;;;;7.93;4.30;;;;;;;;;;5089960;28;20400;-54
2021/04/24 05:08:47;;;;;;;10.87;4.80;;;;;;;;;;5090456;28;20483;-54
2021/04/24 05:11:13;;;;;;;5.37;3.87;;;;;;;;;;5090028;28;20550;-54
2021/04/24 05:13:39;;;;;;;11.27;5.00;;;;;;;;;;5090378;28;20436;-53
2021/04/24 05:16:05;;;;;;;14.68;5.80;;;;;;;;;;5090133;28;20416;-54
2021/04/24 05:18:31;;;;;;;7.47;4.40;;;;;;;;;;5090220;28;20178;-54
2021/04/24 05:20:59;;;;;;;7.90;5.10;;;;;;;;;;5090175;28;20198;-54
2021/04/24 05:23:25;;;;;;;6.43;3.85;;;;;;;;;;5090127;28;20422;-54
2021/04/24 05:25:51;;;;;;;8.77;4.87;;;;;;;;;;5089845;28;20206;-55
2021/04/24 05:28:17;;;;;;;7.00;4.60;;;;;;;;;;5092243;28;20403;-55
2021/04/24 05:30:43;;;;;;;9.23;5.03;;;;;;;;;;5093791;28;20423;-55
2021/04/24 05:33:09;;;;;;;9.40;4.77;;;;;;;;;;5093702;28;20403;-53
2021/04/24 05:35:35;;;;;;;8.67;5.00;;;;;;;;;;5093600;28;20432;-53
2021/04/24 05:38:01;;;;;;;10.13;5.57;;;;;;;;;;5093579;28;20407;-54
2021/04/24 05:40:27;;;;;;;9.95;5.28;;;;;;;;;;5093577;28;20424;-53
2021/04/24 05:42:53;;;;;;;8.40;4.65;;;;;;;;;;5093379;28;20192;-54
2021/04/24 05:45:19;;;;;;;9.90;4.77;;;;;;;;;;5093395;28;20271;-54
2021/04/24 05:47:47;;;;;;;7.40;4.77;;;;;;;;;;5093490;28;21079;-53
2021/04/24 05:50:14;;;;;;;13.63;5.30;;;;;;;;;;5093484;28;20411;-55
2021/04/24 05:52:40;;;;;;;11.10;5.40;;;;;;;;;;5093360;28;20168;-54
2021/04/24 05:55:06;;;;;;;13.27;4.80;;;;;;;;;;5093126;28;20168;-54
2021/04/24 05:57:33;;;;;;;6.97;5.28;;;;;;;;;;5093188;28;20175;-55
2021/04/24 05:59:59;;;;;;;7.63;5.30;;;;;;;;;;5093145;28;20694;-53
2021/04/24 06:02:25;;;;;;;10.32;6.32;;;;;;;;;;5093205;28;20208;-53
2021/04/24 06:04:51;;;;;;;9.80;5.15;;;;;;;;;;5093270;28;20653;-55
2021/04/24 06:07:17;;;;;;;10.20;5.05;;;;;;;;;;5092939;28;20634;-54
2021/04/24 06:09:43;;;;;;;9.37;5.13;;;;;;;;;;5093055;28;20691;-54
2021/04/24 06:12:09;;;;;;;14.40;4.80;;;;;;;;;;5093138;28;20557;-54
2021/04/24 06:14:35;;;;;;;13.05;7.32;;;;;;;;;;5092945;28;20766;-54
2021/04/24 06:17:02;;;;;;;5.55;4.35;;;;;;;;;;5092844;28;20726;-54
2021/04/24 06:19:28;;;;;;;5.65;4.07;;;;;;;;;;5092853;28;20201;-54
2021/04/24 06:21:54;;;;;;;6.60;4.38;;;;;;;;;;5092859;28;20193;-54
2021/04/24 06:24:21;;;;;;;8.13;4.87;;;;;;;;;;5092637;28;20163;-55
2021/04/24 06:26:47;;;;;;;10.85;5.40;;;;;;;;;;5092490;28;20492;-53
2021/04/24 06:29:13;;;;;;;11.25;4.55;;;;;;;;;;5092479;28;20176;-54
2021/04/24 06:31:39;;;;;;;12.63;5.35;;;;;;;;;;5092683;28;20174;-54
2021/04/24 06:34:05;;;;;;;11.25;5.70;;;;;;;;;;5092472;28;20167;-55
2021/04/24 06:36:31;;;;;;;10.83;4.90;;;;;;;;;;5091593;28;20166;-55
2021/04/24 06:38:58;;;;;;;8.53;4.80;;;;;;;;;;5090546;28;20405;-53
2021/04/24 06:41:24;;;;;;;10.80;5.73;;;;;;;;;;5092008;28;20509;-54
2021/04/24 06:43:50;;;;;;;9.20;6.10;;;;;;;;;;5073722;28;20503;-54
2021/04/24 06:46:16;;;;;;;8.10;5.60;;;;;;;;;;5091892;28;20801;-54
2021/04/24 06:48:42;;;;;;;9.07;5.23;;;;;;;;;;5091890;28;20398;-54
2021/04/24 06:51:08;;;;;;;9.50;5.10;;;;;;;;;;5091894;28;20918;-54
2021/04/24 06:53:34;;;;;;;8.60;5.47;;;;;;;;;;5091495;28;20402;-55
2021/04/24 06:56:00;;;;;;;7.83;5.70;;;;;;;;;;5091625;28;20438;-54
2021/04/24 06:58:26;;;;;;;11.00;5.13;;;;;;;;;;5091431;28;20414;-54
2021/04/24 07:00:55;;;;;;;8.73;6.20;;;;;;;;;;5091566;28;20449;-54
2021/04/24 07:03:25;;;;;;;10.60;6.60;;;;;;;;;;5091377;28;20424;-54
2021/04/24 07:05:51;;;;;;;10.60;5.83;;;;;;;;;;5073097;28;20933;-55
2021/04/24 07:08:17;;;;;;;9.73;5.83;;;;;;;;;;5091545;28;20765;-54
2021/04/24 07:10:44;;;;;;;12.17;6.43;;;;;;;;;;5101053;28;20928;-55
2021/04/24 07:13:10;;;;;;;11.60;6.30;;;;;;;;;;5076680;28;20431;-54
2021/04/24 07:15:36;;;;;;;9.23;5.50;;;;;;;;;;5090766;28;20870;-54
2021/04/24 07:18:02;;;;;;;12.40;5.33;;;;;;;;;;5090842;28;20411;-54
2021/04/24 07:20:28;;;;;;;7.70;4.33;;;;;;;;;;5089551;28;20430;-54
2021/04/24 07:22:54;;;;;;;8.80;5.40;;;;;;;;;;5091613;28;20411;-55
2021/04/24 07:25:20;;;;;;;15.30;6.03;;;;;;;;;;5091126;28;20400;-54
2021/04/24 07:27:46;;;;;;;7.33;4.90;;;;;;;;;;5091792;28;20430;-54
2021/04/24 07:30:13;;;;;;;5.87;4.17;;;;;;;;;;5091383;28;20478;-54
2021/04/24 07:32:39;;;;;;;15.30;6.27;;;;;;;;;;5091511;28;20404;-54
2021/04/24 07:35:09;;;;;;;6.60;5.33;;;;;;;;;;5091071;28;20839;-55
2021/04/24 07:37:35;;;;;;;10.40;4.90;;;;;;;;;;5091754;28;20456;-54
2021/04/24 07:40:01;;;;;;;7.67;5.03;;;;;;;;;;5091340;28;20427;-54
2021/04/24 07:42:27;;;;;;;8.23;4.60;;;;;;;;;;5091608;28;20454;-54
2021/04/24 07:44:53;;;;;;;9.27;4.80;;;;;;;;;;5091297;28;20560;-54
2021/04/24 07:47:19;;;;;;;4.67;4.23;;;;;;;;;;5091254;28;20493;-55
2021/04/24 07:49:45;;;;;;;6.23;4.00;;;;;;;;;;5090933;28;20905;-55
2021/04/24 07:52:11;;;;;;;5.67;3.90;;;;;;;;;;5091335;28;20407;-54
2021/04/24 07:54:42;;;;;;;5.30;3.60;;;;;;;;;;5091508;28;20400;-54
2021/04/24 07:57:11;;;;;;;6.80;4.30;;;;;;;;;;5091229;28;20399;-55
2021/04/24 07:59:38;;;;;;;5.10;4.07;;;;;;;;;;5091245;28;20954;-55
2021/04/24 08:02:04;;;;;;;4.00;3.60;;;;;;;;;;5091048;28;20914;-54
2021/04/24 08:04:31;;;;;;;9.80;4.30;;;;;;;;;;5091206;28;20400;-55
2021/04/24 08:06:57;;;;;;;7.47;3.93;;;;;;;;;;5090708;28;20884;-54
2021/04/24 08:09:23;;;;;;;6.80;4.30;;;;;;;;;;5091034;28;20464;-55
2021/04/24 08:11:49;;;;;;;4.20;3.50;;;;;;;;;;5090833;28;20453;-54
2021/04/24 08:14:15;;;;;;;4.93;3.67;;;;;;;;;;5090946;28;20393;-54
2021/04/24 08:16:41;;;;;;;4.40;4.00;;;;;;;;;;5090474;28;20394;-54
2021/04/24 08:19:07;;;;;;;7.00;3.47;;;;;;;;;;5090859;28;20430;-54
2021/04/24 08:21:33;;;;;;;6.80;4.40;;;;;;;;;;5090615;28;20562;-54
2021/04/24 08:24:00;;;;;;;9.33;4.70;;;;;;;;;;5090884;28;20399;-54
2021/04/24 08:26:31;;;;;;;5.90;4.40;;;;;;;;;;5090480;28;20398;-55
2021/04/24 08:28:57;;;;;;;6.20;3.57;;;;;;;;;;5090689;28;20395;-54
2021/04/24 08:31:23;;;;;;;9.50;4.27;;;;;;;;;;5090469;28;20418;-55
2021/04/24 08:33:49;;;;;;;7.60;4.70;;;;;;;;;;5072422;28;20419;-55
2021/04/24 08:36:15;;;;;;;8.20;4.13;;;;;;;;;;5090187;28;20411;-54
2021/04/24 08:38:41;;;;;;;11.13;4.07;;;;;;;;;;5090683;28;20411;-54
2021/04/24 08:41:08;;;;;;;4.67;3.73;;;;;;;;;;5090409;28;20744;-55
2021/04/24 08:43:38;;;;;;;7.70;3.70;;;;;;;;;;5090617;28;20766;-54
2021/04/24 08:46:04;;;;;;;3.60;3.03;;;;;;;;;;5089976;28;20404;-54
2021/04/24 08:48:30;;;;;;;6.10;4.10;;;;;;;;;;5090824;28;20423;-55
2021/04/24 08:50:56;;;;;;;7.10;3.70;;;;;;;;;;5090415;28;20423;-55
2021/04/24 08:53:22;;;;;;;6.67;4.50;;;;;;;;;;5090392;28;20797;-55
2021/04/24 08:55:49;;;;;;;6.77;4.30;;;;;;;;;;5090274;28;20426;-55
2021/04/24 08:58:15;;;;;;;4.90;3.87;;;;;;;;;;5090099;28;20932;-55
2021/04/24 09:00:42;;;;;;;5.13;3.90;;;;;;;;;;5090155;28;20427;-55
2021/04/24 09:03:09;;;;;;;5.10;4.20;;;;;;;;;;5092428;28;20810;-55
2021/04/24 09:05:36;;;;;;;7.00;4.60;;;;;;;;;;5094159;28;20486;-55
2021/04/24 09:08:04;;;;;;;6.63;3.80;;;;;;;;;;5094249;28;20395;-54
2021/04/24 09:10:35;;;;;;;8.67;4.30;;;;;;;;;;5094486;28;20775;-57
2021/04/24 09:13:01;;;;;;;5.20;3.90;;;;;;;;;;5093975;28;20395;-55
2021/04/24 09:15:28;;;;;;;8.00;3.83;;;;;;;;;;5076118;28;20410;-56
2021/04/24 09:18:02;;;;;;;5.73;3.77;;;;;;;;;;5073483;28;20396;-56
2021/04/24 09:20:30;;;;;;;4.93;4.30;;;;;;;;;;5073529;28;20958;-55
2021/04/24 09:22:57;;;;;;;3.40;3.10;;;;;;;;;;5073566;28;20397;-55
2021/04/24 09:25:30;;;;;;;6.70;4.20;;;;;;;;;;5073359;28;20415;-55
2021/04/24 09:27:56;;;;;;;3.73;3.43;;;;;;;;;;5073519;28;20428;-55
2021/04/24 09:30:23;;;;;;;3.80;3.40;;;;;;;;;;5073626;28;20495;-55
2021/04/24 09:32:50;;;;;;;4.47;2.93;;;;;;;;;;5073833;28;20860;-55
2021/04/24 09:35:20;;;;;;;3.33;3.10;;;;;;;;;;5073318;28;20407;-56
2021/04/24 09:37:56;;;;;;;3.93;2.73;;;;;;;;;;5073979;28;20412;-56
2021/04/24 09:40:22;;;;;;;6.90;3.53;;;;;;;;;;5073414;28;20420;-55
2021/04/24 09:42:48;;;;;;;6.93;3.30;;;;;;;;;;5073335;28;20479;-55
2021/04/24 09:45:26;;;;;;;5.00;3.00;;;;;;;;;;5073333;28;20392;-56
2021/04/24 09:47:53;;;;;;;3.40;3.10;;;;;;;;;;5073434;28;20732;-56
2021/04/24 09:50:20;;;;;;;5.30;4.23;;;;;;;;;;5072958;28;20931;-56
2021/04/24 09:52:46;;;;;;;3.43;3.10;;;;;;;;;;5073179;28;20487;-55
2021/04/24 09:55:35;;;;;;;3.60;3.30;;;;;;;;;;5072765;28;20415;-56
2021/04/24 09:58:03;;;;;;;3.60;2.80;;;;;;;;;;5094153;28;20481;-56
2021/04/24 10:00:29;;;;;;;7.77;3.50;;;;;;;;;;5091808;28;20477;-56
2021/04/24 10:02:56;;;;;;;3.60;3.23;;;;;;;;;;5094018;28;20407;-56
2021/04/24 10:05:23;;;;;;;3.20;2.90;;;;;;;;;;5093229;28;20468;-55
2021/04/24 10:07:49;;;;;;;3.27;2.97;;;;;;;;;;5093508;28;20391;-56
2021/04/24 10:10:38;;;;;;;4.60;3.67;;;;;;;;;;5093123;28;20415;-56
2021/04/24 10:13:05;;;;;;;10.30;3.40;;;;;;;;;;5087478;28;20923;-56
2021/04/24 10:15:35;;;;;;;4.10;2.93;;;;;;;;;;5092782;28;20399;-56
2021/04/24 10:18:02;;;;;;;3.63;3.00;;;;;;;;;;5093225;28;20400;-55
2021/04/24 10:20:28;;;;;;;3.07;2.80;;;;;;;;;;5091302;28;20428;-55
2021/04/24 10:22:55;;;;;;;4.87;3.10;;;;;;;;;;5092725;28;20458;-55
2021/04/24 10:25:21;;;;;;;5.93;3.70;;;;;;;;;;5092536;28;20411;-56
2021/04/24 10:27:48;;;;;;;5.40;3.27;;;;;;;;;;5074525;28;20424;-55
2021/04/24 10:30:14;;;;;;;3.50;3.20;;;;;;;;;;5092326;28;20438;-55
2021/04/24 10:32:40;;;;;;;5.03;3.40;;;;;;;;;;5092483;28;20412;-55
2021/04/24 10:35:06;;;;;;;3.40;2.80;;;;;;;;;;5092509;28;20404;-58
2021/04/24 10:37:32;;;;;;;4.27;3.10;;;;;;;;;;5074386;28;20416;-55
2021/04/24 10:40:03;;;;;;;2.93;2.73;;;;;;;;;;5092492;28;20419;-55
2021/04/24 10:42:30;;;;;;;4.27;3.87;;;;;;;;;;5092308;28;20447;-55
2021/04/24 10:44:59;;;;;;;2.83;2.63;;;;;;;;;;5090919;28;20457;-53
2021/04/24 10:47:44;;;;;;;4.90;3.40;;;;;;;;;;5090444;28;20406;-56
2021/04/24 10:50:12;;;;;;;3.60;3.00;;;;;;;;;;5090294;28;20899;-54
2021/04/24 10:52:39;;;;;;;9.23;4.30;;;;;;;;;;5091611;28;20398;-53
2021/04/24 10:55:14;;;;;;;4.77;3.23;;;;;;;;;;5102653;28;20987;-54
2021/04/24 10:57:40;;;;;;;6.23;3.43;;;;;;;;;;5091844;28;20769;-53
2021/04/24 11:00:06;;;;;;;3.53;3.20;;;;;;;;;;5091377;28;20921;-53
2021/04/24 11:02:48;;;;;;;5.90;4.20;;;;;;;;;;5092333;28;20542;-53
2021/04/24 11:05:27;;;;;;;3.80;3.40;;;;;;;;;;5091593;28;20431;-54
2021/04/24 11:08:12;;;;;;;8.10;3.47;;;;;;;;;;5092055;28;20422;-53
2021/04/24 11:10:43;;;;;;;4.17;3.77;;;;;;;;;;5091737;28;20419;-53
2021/04/24 11:13:14;;;;;;;7.03;3.83;;;;;;;;;;5091720;28;20449;-53
2021/04/24 11:15:40;;;;;;;4.10;3.70;;;;;;;;;;5091393;28;20391;-53
2021/04/24 11:18:11;;;;;;;4.00;3.60;;;;;;;;;;5091523;28;20395;-54
2021/04/24 11:20:55;;;;;;;5.37;4.57;;;;;;;;;;5091519;28;20415;-54
2021/04/24 11:23:33;;;;;;;5.30;3.63;;;;;;;;;;5091796;28;20392;-55
2021/04/24 11:26:19;;;;;;;6.47;3.77;;;;;;;;;;5090501;28;20938;-55
2021/04/24 11:29:00;;;;;;;7.13;3.20;;;;;;;;;;5091388;28;20410;-55
2021/04/24 11:31:46;;;;;;;5.30;3.53;;;;;;;;;;5091284;28;20417;-53
2021/04/24 11:34:24;;;;;;;5.23;4.00;;;;;;;;;;5091399;28;20444;-53
2021/04/24 11:37:08;;;;;;;5.93;4.20;;;;;;;;;;5091106;28;20791;-53
2021/04/24 11:39:34;;;;;;;5.67;4.13;;;;;;;;;;5091382;28;20430;-53
2021/04/24 11:42:20;;;;;;;6.47;4.00;;;;;;;;;;5091248;28;20447;-52
2021/04/24 11:44:46;;;;;;;5.97;4.07;;;;;;;;;;5091232;28;20399;-54
2021/04/24 11:47:12;;;;;;;6.70;3.97;;;;;;;;;;5090858;28;20396;-53
2021/04/24 11:49:50;;;;;;;6.30;3.53;;;;;;;;;;5091228;28;20922;-54
2021/04/24 11:52:16;;;;;;;4.40;4.00;;;;;;;;;;5091237;28;20414;-54
2021/04/24 11:54:42;;;;;;;4.50;4.10;;;;;;;;;;5091131;28;20404;-56
2021/04/24 11:57:11;;;;;;;6.00;4.80;;;;;;;;;;5090602;28;20887;-54
2021/04/24 11:59:38;;;;;;;5.37;4.80;;;;;;;;;;5090733;28;20457;-53
2021/04/24 12:02:15;;;;;;;5.80;4.47;;;;;;;;;;5090981;28;20475;-53
2021/04/24 12:04:41;;;;;;;5.00;4.10;;;;;;;;;;5090540;28;20399;-54
2021/04/24 12:07:11;;;;;;;7.33;4.07;;;;;;;;;;5090743;28;20430;-53
2021/04/24 12:09:49;;;;;;;5.60;4.10;;;;;;;;;;5090439;28;20477;-53
2021/04/24 12:12:17;;;;;;;4.70;4.30;;;;;;;;;;5090627;28;20439;-54
2021/04/24 12:14:43;;;;;;;4.23;3.83;;;;;;;;;;5090629;28;20930;-53
2021/04/24 12:17:10;;;;;;;5.97;4.30;;;;;;;;;;5090640;28;20404;-53
2021/04/24 12:19:40;;;;;;;7.17;4.50;;;;;;;;;;5090540;28;20469;-52
2021/04/24 12:22:19;;;;;;;8.80;5.13;;;;;;;;;;5090556;28;20452;-53
2021/04/24 12:24:55;;;;;;;8.23;4.97;;;;;;;;;;5090410;28;20441;-56
2021/04/24 12:27:22;;;;;;;5.57;4.13;;;;;;;;;;5091368;28;20421;-56
2021/04/24 12:29:50;;;;;;;5.97;5.10;;;;;;;;;;5091088;28;20415;-56
2021/04/24 12:32:17;;;;;;;6.70;4.13;;;;;;;;;;5090531;28;20456;-53
2021/04/24 12:34:43;;;;;;;5.60;4.30;;;;;;;;;;5090646;28;20439;-53
2021/04/24 12:37:12;;;;;;;4.70;4.30;;;;;;;;;;5092434;28;20431;-54
2021/04/24 12:39:38;;;;;;;10.03;5.30;;;;;;;;;;5094720;28;20423;-53
2021/04/24 12:42:05;;;;;;;5.57;4.07;;;;;;;;;;5094576;28;20976;-54
2021/04/24 12:44:31;;;;;;;6.77;4.10;;;;;;;;;;5094706;28;20903;-56
2021/04/24 12:46:57;;;;;;;9.20;4.20;;;;;;;;;;5092909;28;20438;-53
2021/04/24 12:49:23;;;;;;;6.10;4.53;;;;;;;;;;5094548;28;20463;-53
2021/04/24 12:52:06;;;;;;;5.33;4.33;;;;;;;;;;5094230;28;20403;-53
2021/04/24 12:54:32;;;;;;;8.43;4.10;;;;;;;;;;5094724;28;20426;-52
2021/04/24 12:57:11;;;;;;;4.47;3.93;;;;;;;;;;5097822;28;20411;-52
2021/04/24 12:59:37;;;;;;;5.10;4.60;;;;;;;;;;5107479;28;20485;-55
2021/04/24 13:02:03;;;;;;;8.23;5.77;;;;;;;;;;5114539;28;20484;-53
2021/04/24 13:04:29;;;;;;;8.63;5.87;;;;;;;;;;5114745;28;20418;-54
2021/04/24 13:06:56;;;;;;;7.40;4.83;;;;;;;;;;5114379;28;20898;-54
2021/04/24 13:09:31;;;;;;;5.63;5.03;;;;;;;;;;5101485;28;20434;-53
2021/04/24 13:12:05;;;;;;;7.30;4.43;;;;;;;;;;5100489;28;20524;-53
2021/04/24 13:14:39;;;;;;;5.70;4.60;;;;;;;;;;5073224;28;20400;-52
2021/04/24 13:17:09;;;;;;;5.53;4.40;;;;;;;;;;5078272;28;20421;-51
2021/04/24 13:19:47;;;;;;;6.07;4.60;;;;;;;;;;5106470;28;20431;-52
2021/04/24 13:22:13;;;;;;;8.00;4.90;;;;;;;;;;5105077;28;20556;-51
2021/04/24 13:24:45;;;;;;;5.57;4.57;;;;;;;;;;5113619;28;20497;-51
2021/04/24 13:27:11;;;;;;;6.90;4.60;;;;;;;;;;5098789;28;20829;-51
2021/04/24 13:29:41;;;;;;;11.80;4.63;;;;;;;;;;5110548;28;20458;-51
2021/04/24 13:32:13;;;;;;;4.93;4.43;;;;;;;;;;5095899;28;20823;-51
2021/04/24 13:34:40;;;;;;;4.97;4.50;;;;;;;;;;5109061;28;20439;-51
2021/04/24 13:37:21;;;;;;;6.20;4.80;;;;;;;;;;5096660;28;20403;-51
2021/04/24 13:39:49;;;;;;;10.00;5.17;;;;;;;;;;5105297;28;20942;-51
2021/04/24 13:42:25;;;;;;;9.43;4.83;;;;;;;;;;5093511;28;20459;-53
2021/04/24 13:44:51;;;;;;;7.10;4.67;;;;;;;;;;5093564;28;20885;-52
2021/04/24 13:49:56;;;;;;;6.20;5.20;;;;;;;;;;5587021;22;20464;-56
2021/04/24 13:52:22;;;;;;;6.27;5.43;;;;;;;;;;5093072;28;20193;-57
2021/04/24 13:54:49;;;;;;;6.60;5.60;;;;;;;;;;5093822;28;20444;-57
2021/04/24 13:57:16;;;;;;;7.23;5.30;;;;;;;;;;5093270;28;20435;-57
2021/04/24 13:59:42;;;;;;;8.93;5.90;;;;;;;;;;5093061;28;20552;-57
2021/04/24 14:02:08;;;;;;;7.73;6.07;;;;;;;;;;5092913;28;20849;-57
2021/04/24 14:04:34;;;;;;;7.17;5.37;;;;;;;;;;5093286;28;20395;-56
2021/04/24 14:07:00;;;;;;;6.37;5.20;;;;;;;;;;5091303;28;20417;-57
2021/04/24 14:09:26;;;;;;;6.60;5.60;;;;;;;;;;5094880;28;20431;-56
2021/04/24 14:11:52;;;;;;;7.33;5.63;;;;;;;;;;5092674;28;20420;-56
2021/04/24 14:14:18;;;;;;;7.30;5.33;;;;;;;;;;5093080;28;20780;-56
2021/04/24 14:16:44;;;;;;;6.97;5.43;;;;;;;;;;5092793;28;20398;-56
2021/04/24 14:19:10;;;;;;;8.57;6.10;;;;;;;;;;5101267;28;20414;-56
2021/04/24 14:21:36;;;;;;;5.93;4.90;;;;;;;;;;5113192;28;20433;-56
2021/04/24 14:24:03;;;;;;;8.63;6.27;;;;;;;;;;5094310;28;20447;-56
2021/04/24 14:26:33;;;;;;;9.43;6.60;;;;;;;;;;5091406;28;20472;-57
2021/04/24 14:29:00;;;;;;;8.57;6.20;;;;;;;;;;5091083;28;20419;-57
2021/04/24 14:31:26;;;;;;;8.53;6.03;;;;;;;;;;5091160;28;20909;-56
2021/04/24 14:33:52;;;;;;;8.73;6.37;;;;;;;;;;5083133;28;20496;-56
2021/04/24 14:36:18;;;;;;;16.20;6.07;;;;;;;;;;5072440;28;20411;-56
2021/04/24 14:38:44;;;;;;;8.30;5.80;;;;;;;;;;5072240;28;20382;-56
2021/04/24 14:41:10;;;;;;;8.37;6.43;;;;;;;;;;5072197;28;20460;-56
2021/04/24 14:43:36;;;;;;;6.10;5.50;;;;;;;;;;5070555;28;20466;-56
2021/04/24 14:46:03;;;;;;;9.50;4.90;;;;;;;;;;5072020;28;20809;-56